首页
METAR-TAF:

METAR-TAF

机场 :

奧爾托國際機場

拉巴斯, 玻利维亚

纬度: 16-31S, 经度: 068-11W, 海拔: 4058米

当前天气观测

该预报发布于31分钟前的15:00 UTC
风速5节,风向西转西南
温度 8°C
湿度 34%
气压 1041 hPa
能见度10公里或以上
少量云层高于1700英尺

METAR: SLLP 161500Z 24005KT 9999 FEW017 08/M07 Q1041

时间: 11:31 (15:31 UTC)

预报

该预报发布于4小时和41分钟前的10:50 UTC
预报有效从16日的 12点(UTC)到 17日的 12点(UTC)
风速6节,风向东转东南
能见度10公里或以上
少量云层高于1700英尺
短暂存在
从 16日的 17点(UTC)到 16日的 20点(UTC)
少量云层高于2000英尺, 积雨云.
短暂存在
从 17日的 05点(UTC)到 17日的 08点(UTC)
能見度: 3000
少量云层高于200英尺
附近有雾

TAF: SLLP 161050Z 1612/1712 11006KT 9999 FEW017 TX15/1620Z TNM04/1710Z TEMPO 1617/1620 FEW020CB TEMPO 1705/1708 3000E VCFG FEW002

超过4000个机场的气象观测和天气预报(METAR&TAF报告)。

可查询的气象台以黄色和红色小点在地图上表示。

将鼠标移到小点上方,可查看气象台名称。

然后点击查看天气观测和预报。

如需切换地图:点击带黑十字的绿色按钮放大地图;点击带横线的绿色按钮缩小地图;或者点击绿色箭头查看邻近地区的地图。


METAR-TAF: